createdAt,value
2018-11-13T00:00:30.620Z,9.70
2018-11-13T00:02:59.978Z,9.60
2018-11-13T00:05:28.826Z,9.70
2018-11-13T00:07:57.510Z,9.70
2018-11-13T00:10:26.128Z,9.70
2018-11-13T00:12:54.765Z,9.70
2018-11-13T00:15:23.464Z,9.70
2018-11-13T00:17:52.141Z,9.60
2018-11-13T00:20:20.798Z,9.60
2018-11-13T00:22:49.453Z,9.60
2018-11-13T00:25:18.965Z,9.60
2018-11-13T00:27:47.650Z,9.50
2018-11-13T00:30:21.542Z,9.60
2018-11-13T00:32:50.467Z,9.60
2018-11-13T00:35:19.884Z,9.60
2018-11-13T00:37:49.203Z,9.60
2018-11-13T00:40:18.431Z,9.60
2018-11-13T00:42:47.430Z,9.60
2018-11-13T00:45:16.135Z,9.60
2018-11-13T00:47:44.865Z,9.60
2018-11-13T01:01:36.233Z,9.60
2018-11-13T01:04:05.418Z,9.70
2018-11-13T01:06:34.495Z,9.70
2018-11-13T01:09:03.668Z,9.70
2018-11-13T01:11:32.611Z,9.70
2018-11-13T01:14:01.279Z,9.70
2018-11-13T01:16:29.923Z,9.80
2018-11-13T01:18:58.543Z,9.70
2018-11-13T01:21:27.141Z,9.70
2018-11-13T01:23:55.764Z,9.80
2018-11-13T01:26:24.398Z,9.80
2018-11-13T01:28:52.984Z,9.80
2018-11-13T01:31:21.592Z,9.80
2018-11-13T01:33:50.190Z,9.80
2018-11-13T01:36:18.777Z,9.80
2018-11-13T01:38:47.411Z,9.70
2018-11-13T01:41:16.059Z,9.70
2018-11-13T01:43:44.942Z,9.70
2018-11-13T01:46:13.919Z,9.70
2018-11-13T01:48:42.817Z,9.70
2018-11-13T01:51:11.814Z,9.70
2018-11-13T01:53:40.849Z,9.70
2018-11-13T01:56:09.568Z,9.70
2018-11-13T01:58:38.567Z,9.70
2018-11-13T02:01:07.585Z,9.70
2018-11-13T02:03:36.735Z,9.60
2018-11-13T02:06:06.614Z,9.60
2018-11-13T02:08:35.851Z,9.60
2018-11-13T02:11:05.041Z,9.60
2018-11-13T02:13:33.899Z,9.60
2018-11-13T02:16:02.721Z,9.60
2018-11-13T02:18:31.349Z,9.70
2018-11-13T02:21:00.010Z,9.70
2018-11-13T02:23:28.598Z,9.80
2018-11-13T02:25:57.267Z,9.80
2018-11-13T02:28:25.858Z,9.80
2018-11-13T02:30:54.490Z,9.80
2018-11-13T02:33:23.110Z,9.80
2018-11-13T02:35:51.754Z,9.80
2018-11-13T02:38:20.366Z,9.80
2018-11-13T02:40:48.963Z,9.80
2018-11-13T02:43:17.617Z,9.80
2018-11-13T02:45:46.209Z,9.80
2018-11-13T02:48:14.898Z,9.80
2018-11-13T02:50:43.689Z,9.80
2018-11-13T02:53:12.598Z,9.90
2018-11-13T02:55:41.403Z,9.90
2018-11-13T02:58:10.272Z,9.90
2018-11-13T03:00:39.197Z,9.90
2018-11-13T03:03:08.207Z,9.90
2018-11-13T03:05:37.306Z,9.90
2018-11-13T03:08:06.781Z,9.90
2018-11-13T03:10:35.576Z,9.90
2018-11-13T03:13:04.990Z,9.90
2018-11-13T03:15:34.365Z,9.90
2018-11-13T03:18:03.531Z,9.90
2018-11-13T03:20:32.773Z,9.90
2018-11-13T03:23:01.448Z,9.90
2018-11-13T03:25:33.415Z,9.90
2018-11-13T03:28:03.121Z,9.90
2018-11-13T03:30:31.775Z,9.80
2018-11-13T03:33:00.434Z,9.80
2018-11-13T03:35:29.036Z,9.80
2018-11-13T03:37:57.648Z,9.80
2018-11-13T03:40:26.274Z,9.80
2018-11-13T03:42:54.896Z,9.90
2018-11-13T03:45:23.499Z,9.80
2018-11-13T03:47:52.158Z,9.90
2018-11-13T03:50:21.878Z,9.90
2018-11-13T03:52:50.604Z,9.80
2018-11-13T03:55:19.986Z,9.90
2018-11-13T03:57:49.355Z,9.90
2018-11-13T04:00:19.371Z,9.90
2018-11-13T04:02:47.964Z,9.90
2018-11-13T04:05:17.657Z,9.90
2018-11-13T04:07:49.489Z,9.90
2018-11-13T04:10:18.938Z,9.90
2018-11-13T04:12:47.617Z,10.00
2018-11-13T04:15:17.646Z,10.00
2018-11-13T04:17:46.357Z,10.00
2018-11-13T04:20:17.979Z,10.00
2018-11-13T04:22:46.812Z,10.00
2018-11-13T04:25:15.466Z,10.00
2018-11-13T04:27:44.081Z,9.90
2018-11-13T04:30:14.439Z,9.90
2018-11-13T04:32:43.298Z,9.90
2018-11-13T04:35:13.280Z,9.90
2018-11-13T04:37:42.039Z,9.90
2018-11-13T04:40:12.310Z,9.90
2018-11-13T04:42:42.123Z,10.00
2018-11-13T04:45:12.585Z,9.90
2018-11-13T04:47:41.537Z,10.00
2018-11-13T04:50:12.426Z,10.00
2018-11-13T04:52:41.126Z,10.00
2018-11-13T04:55:10.411Z,10.00
2018-11-13T04:57:40.354Z,10.00
2018-11-13T05:00:11.073Z,10.00
2018-11-13T05:02:41.140Z,10.00
2018-11-13T05:05:14.245Z,10.00
2018-11-13T05:07:45.498Z,10.00
2018-11-13T05:10:14.260Z,10.00
2018-11-13T05:12:43.920Z,10.00
2018-11-13T05:15:12.720Z,10.00
2018-11-13T05:17:42.436Z,10.00
2018-11-13T05:20:12.505Z,10.00
2018-11-13T05:22:41.289Z,10.00
2018-11-13T05:25:12.129Z,10.10
2018-11-13T05:27:41.559Z,10.10
2018-11-13T05:30:12.939Z,10.10
2018-11-13T05:32:41.917Z,10.10
2018-11-13T05:35:12.302Z,10.10
2018-11-13T05:37:42.289Z,10.10
2018-11-13T05:40:13.917Z,10.10
2018-11-13T05:42:42.610Z,10.10
2018-11-13T05:45:13.403Z,10.10
2018-11-13T05:47:42.143Z,10.10
2018-11-13T05:50:12.477Z,10.10
2018-11-13T05:52:42.079Z,10.10
2018-11-13T05:55:11.279Z,10.10
2018-11-13T05:57:40.530Z,10.00
2018-11-13T06:00:13.651Z,10.10
2018-11-13T06:02:42.366Z,10.20
2018-11-13T06:05:11.826Z,10.10
2018-11-13T06:07:40.996Z,10.10
2018-11-13T06:10:11.027Z,10.10
2018-11-13T06:12:40.071Z,10.10
2018-11-13T06:15:09.365Z,10.10
2018-11-13T06:17:38.229Z,10.10
2018-11-13T06:20:08.895Z,10.10
2018-11-13T06:22:37.820Z,10.20
2018-11-13T06:25:08.182Z,10.20
2018-11-13T06:27:37.413Z,10.20
2018-11-13T06:30:10.236Z,10.20
2018-11-13T06:32:39.072Z,10.20
2018-11-13T06:35:08.024Z,10.20
2018-11-13T06:37:37.215Z,10.20
2018-11-13T06:40:06.975Z,10.30
2018-11-13T06:42:35.918Z,10.30
2018-11-13T06:45:06.100Z,10.30
2018-11-13T06:47:35.212Z,10.30
2018-11-13T06:50:04.257Z,10.30
2018-11-13T06:52:33.083Z,10.30
2018-11-13T06:55:05.154Z,10.30
2018-11-13T06:57:34.595Z,10.40
2018-11-13T07:00:04.334Z,10.40
2018-11-13T07:02:33.180Z,10.30
2018-11-13T07:05:01.911Z,10.30
2018-11-13T07:07:30.506Z,10.40
2018-11-13T07:09:59.085Z,10.30
2018-11-13T07:12:27.856Z,10.30
2018-11-13T07:14:56.743Z,10.20
2018-11-13T07:17:25.514Z,10.20
2018-11-13T07:19:54.406Z,10.20
2018-11-13T07:22:23.179Z,10.20
2018-11-13T07:24:51.807Z,10.20
2018-11-13T07:27:20.446Z,10.20
2018-11-13T07:29:49.065Z,10.20
2018-11-13T07:32:17.721Z,10.20
2018-11-13T07:34:46.306Z,10.20
2018-11-13T07:37:15.624Z,10.20
2018-11-13T07:39:44.217Z,10.20
2018-11-13T07:42:12.902Z,10.30
2018-11-13T07:44:41.819Z,10.30
2018-11-13T07:47:10.776Z,10.40
2018-11-13T07:49:39.688Z,10.40
2018-11-13T07:52:08.969Z,10.40
2018-11-13T07:54:38.435Z,10.40
2018-11-13T07:57:08.643Z,10.30
2018-11-13T07:59:37.877Z,10.40
2018-11-13T08:02:06.886Z,10.40
2018-11-13T08:04:36.160Z,10.40
2018-11-13T08:07:05.467Z,10.40
2018-11-13T08:09:34.790Z,10.40
2018-11-13T08:12:03.810Z,10.40
2018-11-13T08:14:32.830Z,10.40
2018-11-13T08:17:02.430Z,10.50
2018-11-13T08:19:31.070Z,10.60
2018-11-13T08:21:59.786Z,10.60
2018-11-13T08:24:28.613Z,10.60
2018-11-13T08:26:58.242Z,10.70
2018-11-13T08:29:26.949Z,10.70
2018-11-13T08:31:55.760Z,10.70
2018-11-13T08:34:25.231Z,10.80
2018-11-13T08:36:53.862Z,10.80
2018-11-13T08:39:22.528Z,10.90
2018-11-13T08:41:51.300Z,10.90
2018-11-13T08:44:20.007Z,10.90
2018-11-13T08:46:48.775Z,10.90
2018-11-13T08:49:17.421Z,10.90
2018-11-13T08:51:46.923Z,10.80
2018-11-13T08:54:15.689Z,10.80
2018-11-13T08:56:44.365Z,10.80
2018-11-13T08:59:13.502Z,10.80
2018-11-13T09:01:42.072Z,11.00
2018-11-13T09:04:10.910Z,11.30
2018-11-13T09:06:39.801Z,11.60
2018-11-13T09:09:11.034Z,11.90
2018-11-13T09:11:40.100Z,12.10
2018-11-13T09:14:09.022Z,12.10
2018-11-13T09:16:38.085Z,12.30
2018-11-13T09:19:07.521Z,12.60
2018-11-13T09:21:36.573Z,12.70
2018-11-13T09:24:05.688Z,12.60
2018-11-13T09:26:36.706Z,12.60
2018-11-13T09:29:05.853Z,12.50
2018-11-13T09:31:35.232Z,12.40
2018-11-13T09:34:04.207Z,12.60
2018-11-13T09:36:33.202Z,12.60
2018-11-13T09:39:01.916Z,12.60
2018-11-13T09:41:30.566Z,12.50
2018-11-13T09:43:59.478Z,12.40
2018-11-13T09:46:28.246Z,12.40
2018-11-13T09:48:57.214Z,12.30
2018-11-13T09:51:25.959Z,12.30
2018-11-13T09:53:54.622Z,12.20
2018-11-13T09:56:23.261Z,12.20
2018-11-13T09:58:51.882Z,12.20
2018-11-13T10:01:20.854Z,12.40
2018-11-13T10:03:50.042Z,12.60
2018-11-13T10:06:17.940Z,12.90
2018-11-13T10:08:46.594Z,12.90
2018-11-13T10:11:15.352Z,13.00
2018-11-13T10:13:44.285Z,13.10
2018-11-13T10:16:12.891Z,13.00
2018-11-13T10:18:41.983Z,13.10
2018-11-13T10:21:10.853Z,13.10
2018-11-13T10:23:39.614Z,13.00
2018-11-13T10:26:08.419Z,13.00
2018-11-13T10:28:37.402Z,12.80
2018-11-13T10:31:06.735Z,12.80
2018-11-13T10:33:35.683Z,12.80
2018-11-13T10:36:04.879Z,12.90
2018-11-13T10:38:33.933Z,13.00
2018-11-13T10:41:03.103Z,13.00
2018-11-13T10:43:31.759Z,13.30
2018-11-13T10:46:00.445Z,13.50
2018-11-13T10:48:29.316Z,13.60
2018-11-13T10:50:58.328Z,13.70
2018-11-13T10:53:27.253Z,14.00
2018-11-13T10:55:56.122Z,14.50
2018-11-13T10:58:24.848Z,15.00
2018-11-13T11:03:01.684Z,15.30
2018-11-13T11:05:32.711Z,15.50
2018-11-13T11:08:01.496Z,15.40
2018-11-13T11:10:30.201Z,15.00
2018-11-13T11:12:59.016Z,14.80
2018-11-13T11:15:27.644Z,14.80
2018-11-13T11:17:56.403Z,14.60
2018-11-13T11:20:25.115Z,14.40
2018-11-13T11:22:53.948Z,14.30
2018-11-13T11:25:22.701Z,14.00
2018-11-13T11:27:51.411Z,14.00
2018-11-13T11:30:20.083Z,14.00
2018-11-13T11:32:48.682Z,14.20
2018-11-13T11:35:18.479Z,14.20
2018-11-13T11:37:47.211Z,14.10
2018-11-13T11:40:16.538Z,14.00
2018-11-13T11:42:45.458Z,14.00
2018-11-13T11:45:14.737Z,13.70
2018-11-13T11:47:44.118Z,13.60
2018-11-13T11:50:13.867Z,13.50
2018-11-13T11:52:42.649Z,13.30
2018-11-13T11:55:12.210Z,13.20
2018-11-13T11:57:41.126Z,13.10
2018-11-13T12:00:12.441Z,13.20
2018-11-13T12:02:41.480Z,13.20
2018-11-13T12:05:11.280Z,13.70
2018-11-13T12:07:40.082Z,14.00
2018-11-13T12:10:10.924Z,14.40
2018-11-13T12:12:39.953Z,14.30
2018-11-13T12:15:10.088Z,14.20
2018-11-13T12:17:39.121Z,14.10
2018-11-13T12:20:09.685Z,13.90
2018-11-13T12:22:38.843Z,13.70
2018-11-13T12:25:09.986Z,13.70
2018-11-13T12:27:38.906Z,13.60
2018-11-13T12:30:10.434Z,13.60
2018-11-13T12:32:39.385Z,13.50
2018-11-13T12:35:09.766Z,13.40
2018-11-13T12:37:39.005Z,13.30
2018-11-13T12:40:10.227Z,13.20
2018-11-13T12:42:39.121Z,13.20
2018-11-13T12:45:09.093Z,13.50
2018-11-13T12:47:38.067Z,13.80
2018-11-13T12:50:08.236Z,14.20
2018-11-13T12:52:37.234Z,14.10
2018-11-13T12:55:08.552Z,14.20
2018-11-13T12:57:37.445Z,14.10
2018-11-13T13:00:11.629Z,14.20
2018-11-13T13:02:40.574Z,14.30
2018-11-13T13:05:09.918Z,14.70
2018-11-13T13:07:38.832Z,15.30
2018-11-13T13:10:09.704Z,16.00
2018-11-13T13:12:39.065Z,16.30
2018-11-13T13:15:10.112Z,16.40
2018-11-13T13:17:39.336Z,16.00
2018-11-13T13:20:11.970Z,15.60
2018-11-13T13:22:41.064Z,15.30
2018-11-13T13:25:12.549Z,14.80
2018-11-13T13:27:41.491Z,14.50
2018-11-13T13:30:12.688Z,14.20
2018-11-13T13:32:41.661Z,14.00
2018-11-13T13:35:49.237Z,13.70
2018-11-13T13:38:17.914Z,13.60
2018-11-13T13:40:47.954Z,13.60
2018-11-13T13:43:17.259Z,13.70
2018-11-13T13:45:46.790Z,13.60
2018-11-13T13:48:15.698Z,13.50
2018-11-13T13:50:45.050Z,13.40
2018-11-13T13:53:14.630Z,13.30
2018-11-13T13:55:43.506Z,13.20
2018-11-13T13:58:12.888Z,13.10
2018-11-13T14:00:41.787Z,13.00
2018-11-13T14:03:11.394Z,13.00
2018-11-13T14:05:40.897Z,12.90
2018-11-13T14:08:10.606Z,12.90
2018-11-13T14:10:39.759Z,13.10
2018-11-13T14:13:08.973Z,13.40
2018-11-13T14:15:38.113Z,13.70
2018-11-13T14:18:07.176Z,14.00
2018-11-13T14:20:36.327Z,14.30
2018-11-13T14:23:05.825Z,14.60
2018-11-13T14:25:35.083Z,14.80
2018-11-13T14:28:04.126Z,14.90
2018-11-13T14:30:34.489Z,15.00
2018-11-13T14:33:05.108Z,15.10
2018-11-13T14:35:34.115Z,15.00
2018-11-13T14:38:03.270Z,14.60
2018-11-13T14:40:34.748Z,14.30
2018-11-13T14:43:03.880Z,14.10
2018-11-13T14:45:33.124Z,13.90
2018-11-13T14:48:01.894Z,13.70
2018-11-13T14:50:31.911Z,13.60
2018-11-13T14:53:00.802Z,13.50
2018-11-13T14:55:34.232Z,13.40
2018-11-13T14:58:03.711Z,13.20
2018-11-13T15:00:33.814Z,13.10
2018-11-13T15:03:05.050Z,13.00
2018-11-13T15:05:35.271Z,12.90
2018-11-13T15:08:06.123Z,12.80
2018-11-13T15:10:46.254Z,12.70
2018-11-13T15:13:15.286Z,12.60
2018-11-13T15:15:44.032Z,12.50
2018-11-13T15:18:12.977Z,12.50
2018-11-13T15:20:42.253Z,12.40
2018-11-13T15:23:12.234Z,12.40
2018-11-13T15:25:41.226Z,12.40
2018-11-13T15:28:10.553Z,12.30
2018-11-13T15:30:41.124Z,12.30
2018-11-13T15:33:12.523Z,12.30
2018-11-13T15:35:41.329Z,12.20
2018-11-13T15:38:10.070Z,12.20
2018-11-13T15:40:39.329Z,12.10
2018-11-13T15:43:08.369Z,12.00
2018-11-13T15:45:37.414Z,12.00
2018-11-13T15:48:07.950Z,11.90
2018-11-13T15:50:38.005Z,11.80
2018-11-13T15:53:07.470Z,11.70
2018-11-13T15:55:36.604Z,11.60
2018-11-13T15:58:06.302Z,11.60
2018-11-13T16:00:37.038Z,11.50
2018-11-13T16:03:09.891Z,11.40
2018-11-13T16:05:41.436Z,11.40
2018-11-13T16:08:10.894Z,11.30
2018-11-13T16:10:39.925Z,11.20
2018-11-13T16:13:09.098Z,11.20
2018-11-13T16:15:37.914Z,11.20
2018-11-13T16:18:09.044Z,11.20
2018-11-13T16:20:37.993Z,11.10
2018-11-13T16:23:07.225Z,11.10
2018-11-13T16:25:36.430Z,11.00
2018-11-13T16:28:05.771Z,11.00
2018-11-13T16:30:37.825Z,11.00
2018-11-13T16:33:07.114Z,10.90
2018-11-13T16:35:36.654Z,10.90
2018-11-13T16:38:09.569Z,10.80
2018-11-13T16:40:38.589Z,10.80
2018-11-13T16:43:11.500Z,10.80
2018-11-13T16:45:40.774Z,10.70
2018-11-13T16:48:10.667Z,10.70
2018-11-13T16:50:41.189Z,10.60
2018-11-13T16:53:10.626Z,10.60
2018-11-13T16:55:45.338Z,10.60
2018-11-13T16:58:15.166Z,10.60
2018-11-13T17:00:44.296Z,10.60
2018-11-13T17:03:12.932Z,10.60
2018-11-13T17:05:41.872Z,10.70
2018-11-13T17:08:10.936Z,10.70
2018-11-13T17:10:41.830Z,10.70
2018-11-13T17:13:10.633Z,10.70
2018-11-13T17:15:39.774Z,10.70
2018-11-13T17:18:08.962Z,10.70
2018-11-13T17:20:38.100Z,10.60
2018-11-13T17:23:07.636Z,10.60
2018-11-13T17:25:37.944Z,10.60
2018-11-13T17:28:07.621Z,10.60
2018-11-13T17:30:37.125Z,10.60
2018-11-13T17:33:07.924Z,10.50
2018-11-13T17:35:36.950Z,10.60
2018-11-13T17:38:06.601Z,10.50
2018-11-13T17:40:36.711Z,10.50
2018-11-13T17:43:06.857Z,10.50
2018-11-13T17:45:37.811Z,10.40
2018-11-13T17:48:08.232Z,10.40
2018-11-13T17:50:38.916Z,10.40
2018-11-13T17:53:10.434Z,10.40
2018-11-13T17:55:39.614Z,10.30
2018-11-13T17:58:10.595Z,10.20
2018-11-13T18:00:40.826Z,10.20
2018-11-13T18:03:11.613Z,10.10
2018-11-13T18:05:41.109Z,10.10
2018-11-13T18:08:10.795Z,10.10
2018-11-13T18:10:40.985Z,10.00
2018-11-13T18:13:10.054Z,10.00
2018-11-13T18:15:39.028Z,10.00
2018-11-13T18:18:08.457Z,10.00
2018-11-13T18:20:39.343Z,10.00
2018-11-13T18:23:08.825Z,10.00
2018-11-13T18:25:37.791Z,9.90
2018-11-13T18:28:07.630Z,10.00
2018-11-13T18:30:37.695Z,9.90
2018-11-13T18:33:07.662Z,10.00
2018-11-13T18:35:37.718Z,10.00
2018-11-13T18:38:08.507Z,10.00
2018-11-13T18:40:37.549Z,10.00
2018-11-13T18:43:06.969Z,10.00
2018-11-13T18:45:37.263Z,9.90
2018-11-13T18:48:06.263Z,9.90
2018-11-13T18:50:38.989Z,9.90
2018-11-13T18:53:08.823Z,9.90
2018-11-13T18:55:38.416Z,9.90
2018-11-13T18:58:07.821Z,9.90
2018-11-13T19:00:38.288Z,9.90
2018-11-13T19:03:08.897Z,9.90
2018-11-13T19:05:38.406Z,9.90
2018-11-13T19:08:07.871Z,9.90
2018-11-13T19:10:43.337Z,9.90
2018-11-13T19:13:14.386Z,9.90
2018-11-13T19:15:44.673Z,9.80
2018-11-13T19:18:14.741Z,9.80
2018-11-13T19:20:43.628Z,9.70
2018-11-13T19:23:18.340Z,9.70
2018-11-13T19:25:46.947Z,9.60
2018-11-13T19:28:16.266Z,9.60
2018-11-13T19:30:45.015Z,9.60
2018-11-13T19:33:14.284Z,9.50
2018-11-13T19:35:44.240Z,9.50
2018-11-13T19:38:12.938Z,9.50
2018-11-13T19:40:41.836Z,9.50
2018-11-13T19:43:11.747Z,9.50
2018-11-13T19:45:40.551Z,9.50
2018-11-13T19:48:09.610Z,9.40
2018-11-13T19:50:38.863Z,9.30
2018-11-13T19:53:07.829Z,9.30
2018-11-13T19:55:36.846Z,9.30
2018-11-13T19:58:06.348Z,9.30
2018-11-13T20:00:36.699Z,9.20
2018-11-13T20:03:07.250Z,9.20
2018-11-13T20:05:37.014Z,9.20
2018-11-13T20:08:06.893Z,9.10
2018-11-13T20:10:36.756Z,9.10
2018-11-13T20:13:07.722Z,9.10
2018-11-13T20:15:37.204Z,9.10
2018-11-13T20:18:06.326Z,9.00
2018-11-13T20:20:35.728Z,9.10
2018-11-13T20:23:06.051Z,9.00
2018-11-13T20:25:35.833Z,9.00
2018-11-13T20:28:05.079Z,9.00
2018-11-13T20:30:35.567Z,8.90
2018-11-13T20:33:04.608Z,8.80
2018-11-13T20:35:34.402Z,8.90
2018-11-13T20:38:03.970Z,8.80
2018-11-13T20:40:34.384Z,8.80
2018-11-13T20:43:05.015Z,8.70
2018-11-13T20:45:34.352Z,8.60
2018-11-13T20:48:03.419Z,8.60
2018-11-13T20:50:34.178Z,8.50
2018-11-13T20:53:03.871Z,8.40
2018-11-13T20:55:33.529Z,8.40
2018-11-13T20:58:03.681Z,8.30
2018-11-13T21:00:36.605Z,8.20
2018-11-13T21:03:06.433Z,8.20
2018-11-13T21:05:36.365Z,8.20
2018-11-13T21:08:05.388Z,8.20
2018-11-13T21:10:39.201Z,8.10
2018-11-13T21:13:09.224Z,8.20
2018-11-13T21:15:38.407Z,8.20
2018-11-13T21:18:07.623Z,8.10
2018-11-13T21:20:36.711Z,8.10
2018-11-13T21:23:05.796Z,8.10
2018-11-13T21:25:34.834Z,8.10
2018-11-13T21:28:03.993Z,8.10
2018-11-13T21:30:33.022Z,8.00
2018-11-13T21:33:02.115Z,8.10
2018-11-13T21:35:30.698Z,8.00
2018-11-13T21:37:59.302Z,7.90
2018-11-13T21:40:28.496Z,7.80
2018-11-13T21:42:57.976Z,7.80
2018-11-13T21:45:27.659Z,7.80
2018-11-13T21:47:56.647Z,7.80
2018-11-13T21:50:27.687Z,7.80
2018-11-13T21:52:56.917Z,7.80
2018-11-13T21:55:26.872Z,7.80
2018-11-13T21:57:55.729Z,7.80
2018-11-13T22:00:26.614Z,7.80
2018-11-13T22:03:00.627Z,7.80
2018-11-13T22:05:30.059Z,7.80
2018-11-13T22:07:58.870Z,7.80
2018-11-13T22:10:27.652Z,7.70
2018-11-13T22:12:56.466Z,7.70
2018-11-13T22:15:26.490Z,7.70
2018-11-13T22:17:55.370Z,7.70
2018-11-13T22:20:24.743Z,7.70
2018-11-13T22:22:54.890Z,7.70
2018-11-13T22:25:24.607Z,7.60
2018-11-13T22:27:54.610Z,7.60
2018-11-13T22:30:25.310Z,7.60
2018-11-13T22:32:53.964Z,7.60
2018-11-13T22:35:22.950Z,7.60
2018-11-13T22:37:51.635Z,7.60
2018-11-13T22:40:22.378Z,7.60
2018-11-13T22:42:51.402Z,7.70
2018-11-13T22:45:24.441Z,7.70
2018-11-13T22:47:53.604Z,7.70
2018-11-13T22:50:23.726Z,7.70
2018-11-13T22:52:52.703Z,7.70
2018-11-13T22:55:21.537Z,7.70
2018-11-13T22:57:51.514Z,7.70
2018-11-13T23:00:25.501Z,7.70
2018-11-13T23:02:55.155Z,7.70
2018-11-13T23:05:23.829Z,7.70
2018-11-13T23:07:52.459Z,7.70
2018-11-13T23:10:21.024Z,7.60
2018-11-13T23:12:49.695Z,7.70
2018-11-13T23:15:19.771Z,7.70
2018-11-13T23:17:48.451Z,7.70
2018-11-13T23:20:18.359Z,7.60
2018-11-13T23:22:46.982Z,7.50
2018-11-13T23:25:16.719Z,7.50
2018-11-13T23:27:46.281Z,7.50
2018-11-13T23:30:17.166Z,7.50
2018-11-13T23:32:46.080Z,7.40
2018-11-13T23:35:15.059Z,7.50
2018-11-13T23:37:44.939Z,7.50
2018-11-13T23:40:14.820Z,7.40
2018-11-13T23:42:43.850Z,7.50
2018-11-13T23:45:13.446Z,7.40
2018-11-13T23:47:42.680Z,7.40
2018-11-13T23:50:11.608Z,7.40
2018-11-13T23:52:40.641Z,7.50
2018-11-13T23:55:10.861Z,7.50
2018-11-13T23:57:40.104Z,7.50
